Costa Victoria — IBLC — position and weather

sailwx.info

Track history (hours):
 
Tides and Currents Weather Stations Pressure Air Temp Water Temp Dewpoint Dewpoint Depression Visibility Wind Speed Wind Dir Waves Ship Positions

Costa Victoria

Last reported at 2017-Aug-18 11:37 UTC. Time now 2017-Aug-20 20:42 UTC.
Position N 33°56' E 134°54'.

Length 253 m; draft 8 m.

Type: Ship. MMSI: 247109000.

Date/timePositionNaut miles runAvg speedWind from/ knotsBaromVisibWave heightAir tempDewpointWater temp
2017-Aug-18 11:37N 33°56' E 134°54'218.6
2017-Aug-18 11:30N 33°58' E 134°54'917.9
2017-Aug-18 11:01N 34°06' E 134°56'815.7
2017-Aug-18 10:30N 34°14' E 134°58'1115.8
2017-Aug-18 09:49N 34°24' E 135°02'516.8
2017-Aug-18 09:30N 34°28' E 135°07'815.8
2017-Aug-18 09:00N 34°34' E 135°14'611.5
2017-Aug-18 08:31N 34°39' E 135°16'4 6.1
2017-Aug-18 07:55N 34°41' E 135°12'0 0.0
2017-Aug-18 07:25N 34°41' E 135°12'0 0.0
2017-Aug-18 06:55N 34°41' E 135°12'0 0.0
2017-Aug-18 06:25N 34°41' E 135°12'0 0.0
2017-Aug-18 05:55N 34°41' E 135°12'0 0.0
2017-Aug-18 05:25N 34°41' E 135°12'0 0.0
2017-Aug-18 04:55N 34°41' E 135°12'0 0.0
2017-Aug-18 04:25N 34°41' E 135°12'0 0.0
2017-Aug-18 03:49N 34°41' E 135°12'0 0.0
2017-Aug-18 03:01N 34°41' E 135°12'0 0.1
2017-Aug-18 02:49N 34°41' E 135°12'0 0.0
2017-Aug-18 02:25N 34°41' E 135°12'0 0.0
2017-Aug-18 01:55N 34°41' E 135°12'0 0.0
2017-Aug-18 01:25N 34°41' E 135°12'0 0.0
2017-Aug-18 00:43N 34°41' E 135°12'0 0.0
2017-Aug-18 00:19N 34°41' E 135°12'0 0.0
2017-Aug-17 23:55N 34°41' E 135°12'0 0.0
2017-Aug-17 23:25N 34°41' E 135°12'0 0.0
2017-Aug-17 23:00N 34°41' E 135°12'2 3.3
2017-Aug-17 22:30N 34°41' E 135°14'5 9.9
2017-Aug-17 22:00N 34°36' E 135°16'713.5
2017-Aug-17 21:30N 34°30' E 135°11'714.2
2017-Aug-17 21:00N 34°25' E 135°06'815.2
2017-Aug-17 20:30N 34°19' E 135°00'715.2
2017-Aug-17 20:01N 34°11' E 134°60'611.8
2017-Aug-17 19:30N 34°06' E 134°58'611.3
2017-Aug-17 19:00N 33°60' E 134°58'611.1
2017-Aug-17 18:30N 33°54' E 134°57'  
2017-Aug-14 16:08N 33°55' E 134°47'316.0
2017-Aug-14 15:58N 33°57' E 134°45'613.1
2017-Aug-14 15:29N 34°01' E 134°39'6 0.6
2017-Aug-14 04:56N 34°01' E 134°47'1017.3
2017-Aug-14 04:20N 33°54' E 134°56'22516.6
2017-Aug-13 14:45N 34°52' E 139°19'619.6
2017-Aug-13 14:25N 34°56' E 139°26'819.3
2017-Aug-13 14:00N 35°01' E 139°33'918.5
2017-Aug-13 13:30N 35°07' E 139°42'713.5
2017-Aug-13 13:00N 35°13' E 139°46'612.3
2017-Aug-13 12:30N 35°18' E 139°44'612.3
2017-Aug-13 12:00N 35°25' E 139°42'4 7.7
2017-Aug-13 11:30N 35°28' E 139°39'1 1.2
2017-Aug-13 10:59N 35°27' E 139°39'0 0.0
2017-Aug-13 10:29N 35°27' E 139°39'0 0.0
2017-Aug-13 09:59N 35°27' E 139°39'0 0.0
2017-Aug-13 09:29N 35°27' E 139°39'0 0.0
2017-Aug-13 08:59N 35°27' E 139°39'0 0.0
2017-Aug-13 08:29N 35°27' E 139°39'0 0.0
2017-Aug-13 07:59N 35°27' E 139°39'0 0.0
2017-Aug-13 07:29N 35°27' E 139°39'0 0.0
2017-Aug-13 06:59N 35°27' E 139°39'0 0.0
2017-Aug-13 06:29N 35°27' E 139°39'0 0.0
2017-Aug-13 05:59N 35°27' E 139°39'0 0.0
2017-Aug-13 05:29N 35°27' E 139°39'0 0.0
2017-Aug-13 04:59N 35°27' E 139°39'0 0.0
2017-Aug-13 04:29N 35°27' E 139°39'0 0.0
2017-Aug-13 03:59N 35°27' E 139°39'0 0.0
2017-Aug-13 03:26N 35°27' E 139°39'0 0.0
2017-Aug-13 02:59N 35°27' E 139°39'0 0.0
2017-Aug-13 02:29N 35°27' E 139°39'1 1.8
2017-Aug-13 02:00N 35°27' E 139°40'4 7.6
2017-Aug-13 01:30N 35°26' E 139°44'2 3.9
2017-Aug-13 01:00N 35°24' E 139°43'4 7.4
2017-Aug-13 00:30N 35°20' E 139°43'611.8
2017-Aug-13 00:00N 35°15' E 139°47'611.9
2017-Aug-12 23:30N 35°09' E 139°46'816.1
2017-Aug-12 23:00N 35°03' E 139°40'917.9
2017-Aug-12 22:30N 34°59' E 139°30'918.1
2017-Aug-12 22:00N 34°54' E 139°21'1117.0
2017-Aug-12 21:22N 34°45' E 139°13'  
2017-Aug-08 18:38N 34°49' E 139°16'319.8
2017-Aug-08 18:30N 34°52' E 139°18'1019.8
2017-Aug-08 17:58N 34°57' E 139°29'919.5
2017-Aug-08 17:30N 35°02' E 139°38'816.7
2017-Aug-08 17:00N 35°09' E 139°45'510.3
2017-Aug-08 16:30N 35°14' E 139°46'612.6
2017-Aug-08 16:00N 35°19' E 139°43'612.9
2017-Aug-08 15:30N 35°25' E 139°45'714.0
2017-Aug-08 15:00N 35°30' E 139°51'612.2
2017-Aug-08 14:30N 35°36' E 139°47'3 6.5
2017-Aug-08 14:00N 35°39' E 139°46'0 0.0
2017-Aug-08 13:28N 35°39' E 139°46'0 0.0
2017-Aug-08 12:55N 35°39' E 139°46'0 0.0
2017-Aug-08 12:28N 35°39' E 139°46'0 0.0
2017-Aug-08 11:58N 35°39' E 139°46'  
Track history (hours):
 
Tides and Currents Weather Stations Pressure Air Temp Water Temp Dewpoint Dewpoint Depression Visibility Wind Speed Wind Dir Waves Ship Positions

Costa Victoria

Last reported at 2017-Aug-18 11:37 UTC. Time now 2017-Aug-20 20:42 UTC.
Position N 33°56' E 134°54'.

Length 253 m; draft 8 m.

Type: Ship. MMSI: 247109000.

Date/timePositionNaut miles runAvg speedWind from/ knotsBaromVisibWave heightAir tempDewpointWater temp
2017-Aug-18 11:37N 33°56' E 134°54'218.6
2017-Aug-18 11:30N 33°58' E 134°54'917.9
2017-Aug-18 11:01N 34°06' E 134°56'815.7
2017-Aug-18 10:30N 34°14' E 134°58'1115.8
2017-Aug-18 09:49N 34°24' E 135°02'516.8
2017-Aug-18 09:30N 34°28' E 135°07'815.8
2017-Aug-18 09:00N 34°34' E 135°14'611.5
2017-Aug-18 08:31N 34°39' E 135°16'4 6.1
2017-Aug-18 07:55N 34°41' E 135°12'0 0.0
2017-Aug-18 07:25N 34°41' E 135°12'0 0.0
2017-Aug-18 06:55N 34°41' E 135°12'0 0.0
2017-Aug-18 06:25N 34°41' E 135°12'0 0.0
2017-Aug-18 05:55N 34°41' E 135°12'0 0.0
2017-Aug-18 05:25N 34°41' E 135°12'0 0.0
2017-Aug-18 04:55N 34°41' E 135°12'0 0.0
2017-Aug-18 04:25N 34°41' E 135°12'0 0.0
2017-Aug-18 03:49N 34°41' E 135°12'0 0.0
2017-Aug-18 03:01N 34°41' E 135°12'0 0.1
2017-Aug-18 02:49N 34°41' E 135°12'0 0.0
2017-Aug-18 02:25N 34°41' E 135°12'0 0.0
2017-Aug-18 01:55N 34°41' E 135°12'0 0.0
2017-Aug-18 01:25N 34°41' E 135°12'0 0.0
2017-Aug-18 00:43N 34°41' E 135°12'0 0.0
2017-Aug-18 00:19N 34°41' E 135°12'0 0.0
2017-Aug-17 23:55N 34°41' E 135°12'0 0.0
2017-Aug-17 23:25N 34°41' E 135°12'0 0.0
2017-Aug-17 23:00N 34°41' E 135°12'2 3.3
2017-Aug-17 22:30N 34°41' E 135°14'5 9.9
2017-Aug-17 22:00N 34°36' E 135°16'713.5
2017-Aug-17 21:30N 34°30' E 135°11'714.2
2017-Aug-17 21:00N 34°25' E 135°06'815.2
2017-Aug-17 20:30N 34°19' E 135°00'715.2
2017-Aug-17 20:01N 34°11' E 134°60'611.8
2017-Aug-17 19:30N 34°06' E 134°58'611.3
2017-Aug-17 19:00N 33°60' E 134°58'611.1
2017-Aug-17 18:30N 33°54' E 134°57'  
2017-Aug-14 16:08N 33°55' E 134°47'316.0
2017-Aug-14 15:58N 33°57' E 134°45'613.1
2017-Aug-14 15:29N 34°01' E 134°39'6 0.6
2017-Aug-14 04:56N 34°01' E 134°47'1017.3
2017-Aug-14 04:20N 33°54' E 134°56'22516.6
2017-Aug-13 14:45N 34°52' E 139°19'619.6
2017-Aug-13 14:25N 34°56' E 139°26'819.3
2017-Aug-13 14:00N 35°01' E 139°33'918.5
2017-Aug-13 13:30N 35°07' E 139°42'713.5
2017-Aug-13 13:00N 35°13' E 139°46'612.3
2017-Aug-13 12:30N 35°18' E 139°44'612.3
2017-Aug-13 12:00N 35°25' E 139°42'4 7.7
2017-Aug-13 11:30N 35°28' E 139°39'1 1.2
2017-Aug-13 10:59N 35°27' E 139°39'0 0.0
2017-Aug-13 10:29N 35°27' E 139°39'0 0.0
2017-Aug-13 09:59N 35°27' E 139°39'0 0.0
2017-Aug-13 09:29N 35°27' E 139°39'0 0.0
2017-Aug-13 08:59N 35°27' E 139°39'0 0.0
2017-Aug-13 08:29N 35°27' E 139°39'0 0.0
2017-Aug-13 07:59N 35°27' E 139°39'0 0.0
2017-Aug-13 07:29N 35°27' E 139°39'0 0.0
2017-Aug-13 06:59N 35°27' E 139°39'0 0.0
2017-Aug-13 06:29N 35°27' E 139°39'0 0.0
2017-Aug-13 05:59N 35°27' E 139°39'0 0.0
2017-Aug-13 05:29N 35°27' E 139°39'0 0.0
2017-Aug-13 04:59N 35°27' E 139°39'0 0.0
2017-Aug-13 04:29N 35°27' E 139°39'0 0.0
2017-Aug-13 03:59N 35°27' E 139°39'0 0.0
2017-Aug-13 03:26N 35°27' E 139°39'0 0.0
2017-Aug-13 02:59N 35°27' E 139°39'0 0.0
2017-Aug-13 02:29N 35°27' E 139°39'1 1.8
2017-Aug-13 02:00N 35°27' E 139°40'4 7.6
2017-Aug-13 01:30N 35°26' E 139°44'2 3.9
2017-Aug-13 01:00N 35°24' E 139°43'4 7.4
2017-Aug-13 00:30N 35°20' E 139°43'611.8
2017-Aug-13 00:00N 35°15' E 139°47'611.9
2017-Aug-12 23:30N 35°09' E 139°46'816.1
2017-Aug-12 23:00N 35°03' E 139°40'917.9
2017-Aug-12 22:30N 34°59' E 139°30'918.1
2017-Aug-12 22:00N 34°54' E 139°21'1117.0
2017-Aug-12 21:22N 34°45' E 139°13'  
2017-Aug-08 18:38N 34°49' E 139°16'319.8
2017-Aug-08 18:30N 34°52' E 139°18'1019.8
2017-Aug-08 17:58N 34°57' E 139°29'919.5
2017-Aug-08 17:30N 35°02' E 139°38'816.7
2017-Aug-08 17:00N 35°09' E 139°45'510.3
2017-Aug-08 16:30N 35°14' E 139°46'612.6
2017-Aug-08 16:00N 35°19' E 139°43'612.9
2017-Aug-08 15:30N 35°25' E 139°45'714.0
2017-Aug-08 15:00N 35°30' E 139°51'612.2
2017-Aug-08 14:30N 35°36' E 139°47'3 6.5
2017-Aug-08 14:00N 35°39' E 139°46'0 0.0
2017-Aug-08 13:28N 35°39' E 139°46'0 0.0
2017-Aug-08 12:55N 35°39' E 139°46'0 0.0
2017-Aug-08 12:28N 35°39' E 139°46'0 0.0
2017-Aug-08 11:58N 35°39' E 139°46'  

Dump ship's entire track history